sensor_id;sensor_type;location;lat;lon;timestamp;temperature;humidity
23405;DHT22;11875;49.356;2.718;2023-08-06T00:02:19;16.60;99.90
23405;DHT22;11875;49.356;2.718;2023-08-06T00:04:44;16.50;99.90
23405;DHT22;11875;49.356;2.718;2023-08-06T00:07:10;16.50;99.90
23405;DHT22;11875;49.356;2.718;2023-08-06T00:09:35;16.50;99.90
23405;DHT22;11875;49.356;2.718;2023-08-06T00:12:01;16.40;99.90
23405;DHT22;11875;49.356;2.718;2023-08-06T00:14:26;16.30;99.90
23405;DHT22;11875;49.356;2.718;2023-08-06T00:16:52;16.40;99.90
23405;DHT22;11875;49.356;2.718;2023-08-06T00:19:18;16.30;99.90
23405;DHT22;11875;49.356;2.718;2023-08-06T00:21:43;16.20;99.90
23405;DHT22;11875;49.356;2.718;2023-08-06T00:24:09;16.30;99.90
23405;DHT22;11875;49.356;2.718;2023-08-06T00:26:34;16.30;99.90
23405;DHT22;11875;49.356;2.718;2023-08-06T00:29:00;16.30;99.90
23405;DHT22;11875;49.356;2.718;2023-08-06T00:31:25;16.30;99.90
23405;DHT22;11875;49.356;2.718;2023-08-06T00:33:51;16.40;99.90
23405;DHT22;11875;49.356;2.718;2023-08-06T00:36:17;16.40;99.90
23405;DHT22;11875;49.356;2.718;2023-08-06T00:38:42;16.40;99.90
23405;DHT22;11875;49.356;2.718;2023-08-06T00:41:08;16.40;99.90
23405;DHT22;11875;49.356;2.718;2023-08-06T00:43:33;16.40;99.90
23405;DHT22;11875;49.356;2.718;2023-08-06T00:45:59;16.40;99.90
23405;DHT22;11875;49.356;2.718;2023-08-06T00:48:25;16.30;99.90
23405;DHT22;11875;49.356;2.718;2023-08-06T00:50:50;16.30;99.90
23405;DHT22;11875;49.356;2.718;2023-08-06T00:53:16;16.20;99.90
23405;DHT22;11875;49.356;2.718;2023-08-06T00:55:44;16.20;99.90
23405;DHT22;11875;49.356;2.718;2023-08-06T00:58:11;16.10;99.90
23405;DHT22;11875;49.356;2.718;2023-08-06T01:00:37;16.10;99.90
23405;DHT22;11875;49.356;2.718;2023-08-06T01:03:03;16.10;99.90
23405;DHT22;11875;49.356;2.718;2023-08-06T01:05:29;16.00;99.90
23405;DHT22;11875;49.356;2.718;2023-08-06T01:15:55;15.80;99.90
23405;DHT22;11875;49.356;2.718;2023-08-06T01:18:25;15.80;99.90
23405;DHT22;11875;49.356;2.718;2023-08-06T01:20:51;15.70;99.90
23405;DHT22;11875;49.356;2.718;2023-08-06T01:23:16;15.70;99.90
23405;DHT22;11875;49.356;2.718;2023-08-06T01:25:53;15.70;99.90
23405;DHT22;11875;49.356;2.718;2023-08-06T01:28:44;15.70;99.90
23405;DHT22;11875;49.356;2.718;2023-08-06T01:31:18;15.70;99.90
23405;DHT22;11875;49.356;2.718;2023-08-06T01:33:46;15.60;99.90
23405;DHT22;11875;49.356;2.718;2023-08-06T01:36:15;15.60;99.90
23405;DHT22;11875;49.356;2.718;2023-08-06T01:38:41;15.70;99.90
23405;DHT22;11875;49.356;2.718;2023-08-06T01:41:07;15.60;99.90
23405;DHT22;11875;49.356;2.718;2023-08-06T01:43:32;15.60;99.90
23405;DHT22;11875;49.356;2.718;2023-08-06T01:45:58;15.60;99.90
23405;DHT22;11875;49.356;2.718;2023-08-06T01:48:23;15.60;99.90
23405;DHT22;11875;49.356;2.718;2023-08-06T01:50:49;15.60;99.90
23405;DHT22;11875;49.356;2.718;2023-08-06T01:53:15;15.50;99.90
23405;DHT22;11875;49.356;2.718;2023-08-06T01:55:40;15.60;99.90
23405;DHT22;11875;49.356;2.718;2023-08-06T01:58:06;15.50;99.90
23405;DHT22;11875;49.356;2.718;2023-08-06T02:00:31;15.40;99.90
23405;DHT22;11875;49.356;2.718;2023-08-06T02:02:57;15.40;99.90
23405;DHT22;11875;49.356;2.718;2023-08-06T02:05:22;15.40;99.90
23405;DHT22;11875;49.356;2.718;2023-08-06T02:07:48;15.30;99.90
23405;DHT22;11875;49.356;2.718;2023-08-06T02:10:14;15.30;99.90
23405;DHT22;11875;49.356;2.718;2023-08-06T02:12:39;15.30;99.90
23405;DHT22;11875;49.356;2.718;2023-08-06T02:15:05;15.30;99.90
23405;DHT22;11875;49.356;2.718;2023-08-06T02:17:32;15.30;99.90
23405;DHT22;11875;49.356;2.718;2023-08-06T02:19:58;15.40;99.90
23405;DHT22;11875;49.356;2.718;2023-08-06T02:22:23;15.40;99.90
23405;DHT22;11875;49.356;2.718;2023-08-06T02:24:49;15.40;99.90
23405;DHT22;11875;49.356;2.718;2023-08-06T02:27:15;15.40;99.90
23405;DHT22;11875;49.356;2.718;2023-08-06T02:29:40;15.30;99.90
23405;DHT22;11875;49.356;2.718;2023-08-06T02:32:07;15.30;99.90
23405;DHT22;11875;49.356;2.718;2023-08-06T02:34:33;15.30;99.90
23405;DHT22;11875;49.356;2.718;2023-08-06T02:36:58;15.20;99.90
23405;DHT22;11875;49.356;2.718;2023-08-06T02:39:24;15.20;99.90
23405;DHT22;11875;49.356;2.718;2023-08-06T02:41:49;15.20;99.90
23405;DHT22;11875;49.356;2.718;2023-08-06T02:44:15;15.30;99.90
23405;DHT22;11875;49.356;2.718;2023-08-06T02:46:40;15.30;99.90
23405;DHT22;11875;49.356;2.718;2023-08-06T02:49:06;15.30;99.90
23405;DHT22;11875;49.356;2.718;2023-08-06T02:51:32;15.30;99.90
23405;DHT22;11875;49.356;2.718;2023-08-06T02:53:57;15.20;99.90
23405;DHT22;11875;49.356;2.718;2023-08-06T02:56:23;15.20;99.90
23405;DHT22;11875;49.356;2.718;2023-08-06T02:58:49;15.20;99.90
23405;DHT22;11875;49.356;2.718;2023-08-06T03:01:15;15.20;99.90
23405;DHT22;11875;49.356;2.718;2023-08-06T03:03:40;15.20;99.90
23405;DHT22;11875;49.356;2.718;2023-08-06T03:06:06;15.20;99.90
23405;DHT22;11875;49.356;2.718;2023-08-06T03:08:31;15.20;99.90
23405;DHT22;11875;49.356;2.718;2023-08-06T03:10:57;15.10;99.90
23405;DHT22;11875;49.356;2.718;2023-08-06T03:13:23;15.20;99.90
23405;DHT22;11875;49.356;2.718;2023-08-06T03:15:55;15.00;99.90
23405;DHT22;11875;49.356;2.718;2023-08-06T03:18:21;15.10;99.90
23405;DHT22;11875;49.356;2.718;2023-08-06T03:20:47;15.10;99.90
23405;DHT22;11875;49.356;2.718;2023-08-06T03:23:13;15.10;99.90
23405;DHT22;11875;49.356;2.718;2023-08-06T03:25:38;15.10;99.90
23405;DHT22;11875;49.356;2.718;2023-08-06T03:28:04;15.20;99.90
23405;DHT22;11875;49.356;2.718;2023-08-06T03:30:29;15.20;99.90
23405;DHT22;11875;49.356;2.718;2023-08-06T03:32:55;15.00;99.90
23405;DHT22;11875;49.356;2.718;2023-08-06T03:35:20;15.10;99.90
23405;DHT22;11875;49.356;2.718;2023-08-06T03:37:46;15.10;99.90
23405;DHT22;11875;49.356;2.718;2023-08-06T03:40:11;15.10;99.90
23405;DHT22;11875;49.356;2.718;2023-08-06T03:42:37;15.00;99.90
23405;DHT22;11875;49.356;2.718;2023-08-06T03:45:03;15.00;99.90
23405;DHT22;11875;49.356;2.718;2023-08-06T03:47:28;15.00;99.90
23405;DHT22;11875;49.356;2.718;2023-08-06T03:49:54;15.00;99.90
23405;DHT22;11875;49.356;2.718;2023-08-06T03:52:20;14.90;99.90
23405;DHT22;11875;49.356;2.718;2023-08-06T03:54:45;14.90;99.90
23405;DHT22;11875;49.356;2.718;2023-08-06T03:57:11;14.90;99.90
23405;DHT22;11875;49.356;2.718;2023-08-06T03:59:36;14.90;99.90
23405;DHT22;11875;49.356;2.718;2023-08-06T04:02:02;15.00;99.90
23405;DHT22;11875;49.356;2.718;2023-08-06T04:04:28;15.10;99.90
23405;DHT22;11875;49.356;2.718;2023-08-06T04:06:53;15.10;99.90
23405;DHT22;11875;49.356;2.718;2023-08-06T04:09:19;15.10;99.90
23405;DHT22;11875;49.356;2.718;2023-08-06T04:11:45;15.20;99.90
23405;DHT22;11875;49.356;2.718;2023-08-06T04:14:10;15.20;99.90
23405;DHT22;11875;49.356;2.718;2023-08-06T04:16:36;15.20;99.90
23405;DHT22;11875;49.356;2.718;2023-08-06T04:19:01;15.20;99.90
23405;DHT22;11875;49.356;2.718;2023-08-06T04:21:27;15.30;99.90
23405;DHT22;11875;49.356;2.718;2023-08-06T04:23:52;15.30;99.90
23405;DHT22;11875;49.356;2.718;2023-08-06T04:26:18;15.30;99.90
23405;DHT22;11875;49.356;2.718;2023-08-06T04:28:44;15.30;99.90
23405;DHT22;11875;49.356;2.718;2023-08-06T04:31:09;15.40;99.90
23405;DHT22;11875;49.356;2.718;2023-08-06T04:33:35;15.40;99.90
23405;DHT22;11875;49.356;2.718;2023-08-06T04:36:00;15.40;99.90
23405;DHT22;11875;49.356;2.718;2023-08-06T04:38:26;15.30;99.90
23405;DHT22;11875;49.356;2.718;2023-08-06T04:40:52;15.30;99.90
23405;DHT22;11875;49.356;2.718;2023-08-06T04:43:18;15.30;99.90
23405;DHT22;11875;49.356;2.718;2023-08-06T04:45:51;15.30;99.90
23405;DHT22;11875;49.356;2.718;2023-08-06T04:48:18;15.30;99.90
23405;DHT22;11875;49.356;2.718;2023-08-06T04:50:48;15.30;99.90
23405;DHT22;11875;49.356;2.718;2023-08-06T04:53:14;15.30;99.90
23405;DHT22;11875;49.356;2.718;2023-08-06T04:55:40;15.30;99.90
23405;DHT22;11875;49.356;2.718;2023-08-06T04:58:05;15.10;99.90
23405;DHT22;11875;49.356;2.718;2023-08-06T05:00:31;15.10;99.90
23405;DHT22;11875;49.356;2.718;2023-08-06T05:02:59;15.10;99.90
23405;DHT22;11875;49.356;2.718;2023-08-06T05:05:24;15.10;99.90
23405;DHT22;11875;49.356;2.718;2023-08-06T05:07:50;15.00;99.90
23405;DHT22;11875;49.356;2.718;2023-08-06T05:10:16;15.10;99.90
23405;DHT22;11875;49.356;2.718;2023-08-06T05:12:42;15.20;99.90
23405;DHT22;11875;49.356;2.718;2023-08-06T05:15:07;15.20;99.90
23405;DHT22;11875;49.356;2.718;2023-08-06T05:17:33;15.30;99.90
23405;DHT22;11875;49.356;2.718;2023-08-06T05:19:59;15.30;99.90
23405;DHT22;11875;49.356;2.718;2023-08-06T05:22:25;15.30;99.90
23405;DHT22;11875;49.356;2.718;2023-08-06T05:24:50;15.20;99.90
23405;DHT22;11875;49.356;2.718;2023-08-06T05:27:16;15.30;99.90
23405;DHT22;11875;49.356;2.718;2023-08-06T05:29:44;15.30;99.90
23405;DHT22;11875;49.356;2.718;2023-08-06T05:32:10;15.30;99.90
23405;DHT22;11875;49.356;2.718;2023-08-06T05:34:35;15.30;99.90
23405;DHT22;11875;49.356;2.718;2023-08-06T05:37:01;15.30;99.90
23405;DHT22;11875;49.356;2.718;2023-08-06T05:39:27;15.40;99.90
23405;DHT22;11875;49.356;2.718;2023-08-06T05:41:52;15.40;99.90
23405;DHT22;11875;49.356;2.718;2023-08-06T05:44:18;15.40;99.90
23405;DHT22;11875;49.356;2.718;2023-08-06T05:46:43;15.40;99.90
23405;DHT22;11875;49.356;2.718;2023-08-06T05:49:09;15.40;99.90
23405;DHT22;11875;49.356;2.718;2023-08-06T05:51:34;15.50;99.90
23405;DHT22;11875;49.356;2.718;2023-08-06T05:54:00;15.40;99.90
23405;DHT22;11875;49.356;2.718;2023-08-06T05:56:26;15.40;99.90
23405;DHT22;11875;49.356;2.718;2023-08-06T05:58:51;15.40;99.90
23405;DHT22;11875;49.356;2.718;2023-08-06T06:01:18;15.40;99.90
23405;DHT22;11875;49.356;2.718;2023-08-06T06:03:44;15.30;99.90
23405;DHT22;11875;49.356;2.718;2023-08-06T06:06:10;15.30;99.90
23405;DHT22;11875;49.356;2.718;2023-08-06T06:08:36;15.80;99.90
23405;DHT22;11875;49.356;2.718;2023-08-06T06:11:01;15.30;99.90
23405;DHT22;11875;49.356;2.718;2023-08-06T06:13:27;15.40;99.90
23405;DHT22;11875;49.356;2.718;2023-08-06T06:15:55;15.40;99.90
23405;DHT22;11875;49.356;2.718;2023-08-06T06:18:22;15.50;99.90
23405;DHT22;11875;49.356;2.718;2023-08-06T06:20:47;15.50;99.90
23405;DHT22;11875;49.356;2.718;2023-08-06T06:23:13;15.60;99.90
23405;DHT22;11875;49.356;2.718;2023-08-06T06:25:57;15.70;99.90
23405;DHT22;11875;49.356;2.718;2023-08-06T06:28:23;15.70;99.90
23405;DHT22;11875;49.356;2.718;2023-08-06T06:30:49;15.60;99.90
23405;DHT22;11875;49.356;2.718;2023-08-06T06:33:15;15.60;99.90
23405;DHT22;11875;49.356;2.718;2023-08-06T06:35:40;15.60;99.90
23405;DHT22;11875;49.356;2.718;2023-08-06T06:38:06;15.50;99.90
23405;DHT22;11875;49.356;2.718;2023-08-06T06:40:31;15.50;99.90
23405;DHT22;11875;49.356;2.718;2023-08-06T06:42:58;15.50;99.90
23405;DHT22;11875;49.356;2.718;2023-08-06T06:45:24;15.50;99.90
23405;DHT22;11875;49.356;2.718;2023-08-06T06:47:49;15.50;99.90
23405;DHT22;11875;49.356;2.718;2023-08-06T06:50:15;15.50;99.90
23405;DHT22;11875;49.356;2.718;2023-08-06T06:52:41;15.40;99.90
23405;DHT22;11875;49.356;2.718;2023-08-06T06:55:07;15.50;99.90
23405;DHT22;11875;49.356;2.718;2023-08-06T06:57:32;15.50;99.90
23405;DHT22;11875;49.356;2.718;2023-08-06T06:59:58;15.50;99.90
23405;DHT22;11875;49.356;2.718;2023-08-06T07:02:24;15.60;99.90
23405;DHT22;11875;49.356;2.718;2023-08-06T07:04:50;15.60;99.90
23405;DHT22;11875;49.356;2.718;2023-08-06T07:07:15;15.60;99.90
23405;DHT22;11875;49.356;2.718;2023-08-06T07:09:41;15.60;99.90
23405;DHT22;11875;49.356;2.718;2023-08-06T07:12:07;15.60;99.90
23405;DHT22;11875;49.356;2.718;2023-08-06T07:14:33;15.70;99.90
23405;DHT22;11875;49.356;2.718;2023-08-06T07:16:58;15.70;99.90
23405;DHT22;11875;49.356;2.718;2023-08-06T07:19:24;15.70;99.90
23405;DHT22;11875;49.356;2.718;2023-08-06T07:21:49;15.80;99.90
23405;DHT22;11875;49.356;2.718;2023-08-06T07:24:16;15.80;99.90
23405;DHT22;11875;49.356;2.718;2023-08-06T07:26:41;15.80;99.90
23405;DHT22;11875;49.356;2.718;2023-08-06T07:29:07;15.90;99.90
23405;DHT22;11875;49.356;2.718;2023-08-06T07:31:32;15.90;99.90
23405;DHT22;11875;49.356;2.718;2023-08-06T07:33:58;16.00;99.90
23405;DHT22;11875;49.356;2.718;2023-08-06T07:36:24;16.10;99.90
23405;DHT22;11875;49.356;2.718;2023-08-06T07:38:49;16.40;99.90
23405;DHT22;11875;49.356;2.718;2023-08-06T07:41:21;16.50;99.90
23405;DHT22;11875;49.356;2.718;2023-08-06T07:43:47;16.60;99.90
23405;DHT22;11875;49.356;2.718;2023-08-06T07:46:12;16.50;99.90
23405;DHT22;11875;49.356;2.718;2023-08-06T07:48:39;16.40;99.90
23405;DHT22;11875;49.356;2.718;2023-08-06T07:51:04;16.40;99.90
23405;DHT22;11875;49.356;2.718;2023-08-06T07:53:30;16.30;99.90
23405;DHT22;11875;49.356;2.718;2023-08-06T07:55:56;16.40;99.90
23405;DHT22;11875;49.356;2.718;2023-08-06T07:58:23;16.70;99.90
23405;DHT22;11875;49.356;2.718;2023-08-06T08:00:49;16.80;99.90
23405;DHT22;11875;49.356;2.718;2023-08-06T08:03:16;17.00;99.90
23405;DHT22;11875;49.356;2.718;2023-08-06T08:05:43;17.10;99.90
23405;DHT22;11875;49.356;2.718;2023-08-06T08:08:09;17.30;99.90
23405;DHT22;11875;49.356;2.718;2023-08-06T08:10:35;17.60;99.90
23405;DHT22;11875;49.356;2.718;2023-08-06T08:13:02;17.80;99.90
23405;DHT22;11875;49.356;2.718;2023-08-06T08:15:29;17.90;99.90
23405;DHT22;11875;49.356;2.718;2023-08-06T08:17:54;17.80;99.90
23405;DHT22;11875;49.356;2.718;2023-08-06T08:20:20;17.70;99.90
23405;DHT22;11875;49.356;2.718;2023-08-06T08:22:46;17.60;99.90
23405;DHT22;11875;49.356;2.718;2023-08-06T08:25:12;17.60;99.90
23405;DHT22;11875;49.356;2.718;2023-08-06T08:27:38;17.70;99.90
23405;DHT22;11875;49.356;2.718;2023-08-06T08:30:04;17.80;99.90
23405;DHT22;11875;49.356;2.718;2023-08-06T08:32:30;18.00;99.90
23405;DHT22;11875;49.356;2.718;2023-08-06T08:34:55;18.20;99.90
23405;DHT22;11875;49.356;2.718;2023-08-06T08:37:21;18.40;99.90
23405;DHT22;11875;49.356;2.718;2023-08-06T08:39:46;18.50;99.90
23405;DHT22;11875;49.356;2.718;2023-08-06T08:42:13;18.40;99.90
23405;DHT22;11875;49.356;2.718;2023-08-06T08:44:40;18.40;99.90
23405;DHT22;11875;49.356;2.718;2023-08-06T08:47:06;18.50;99.90
23405;DHT22;11875;49.356;2.718;2023-08-06T08:49:35;18.70;99.90
23405;DHT22;11875;49.356;2.718;2023-08-06T08:52:02;18.80;99.90
23405;DHT22;11875;49.356;2.718;2023-08-06T08:54:28;18.90;99.90
23405;DHT22;11875;49.356;2.718;2023-08-06T08:56:56;19.00;99.90
23405;DHT22;11875;49.356;2.718;2023-08-06T08:59:23;19.20;99.90
23405;DHT22;11875;49.356;2.718;2023-08-06T09:01:49;19.30;99.90
23405;DHT22;11875;49.356;2.718;2023-08-06T09:04:18;19.40;99.90
23405;DHT22;11875;49.356;2.718;2023-08-06T09:06:47;19.30;99.90
23405;DHT22;11875;49.356;2.718;2023-08-06T09:09:35;19.10;99.90
23405;DHT22;11875;49.356;2.718;2023-08-06T09:12:11;18.90;99.90
23405;DHT22;11875;49.356;2.718;2023-08-06T09:14:37;18.70;99.90
23405;DHT22;11875;49.356;2.718;2023-08-06T09:17:04;18.60;99.90
23405;DHT22;11875;49.356;2.718;2023-08-06T09:19:31;18.70;99.90
23405;DHT22;11875;49.356;2.718;2023-08-06T09:21:57;18.80;99.90
23405;DHT22;11875;49.356;2.718;2023-08-06T09:24:23;18.90;99.90
23405;DHT22;11875;49.356;2.718;2023-08-06T09:26:48;19.10;99.90
23405;DHT22;11875;49.356;2.718;2023-08-06T09:29:14;19.30;99.90
23405;DHT22;11875;49.356;2.718;2023-08-06T09:31:48;19.30;99.90
23405;DHT22;11875;49.356;2.718;2023-08-06T09:34:17;19.40;99.90
23405;DHT22;11875;49.356;2.718;2023-08-06T09:36:47;19.30;99.90
23405;DHT22;11875;49.356;2.718;2023-08-06T09:39:17;19.30;99.90
23405;DHT22;11875;49.356;2.718;2023-08-06T09:41:44;19.40;99.90
23405;DHT22;11875;49.356;2.718;2023-08-06T09:44:17;19.60;99.90
23405;DHT22;11875;49.356;2.718;2023-08-06T09:47:08;19.80;99.90
23405;DHT22;11875;49.356;2.718;2023-08-06T09:51:59;20.00;99.90
23405;DHT22;11875;49.356;2.718;2023-08-06T09:54:28;20.00;99.90
23405;DHT22;11875;49.356;2.718;2023-08-06T09:56:56;19.80;99.90
23405;DHT22;11875;49.356;2.718;2023-08-06T09:59:23;19.60;99.90
23405;DHT22;11875;49.356;2.718;2023-08-06T10:01:49;19.60;99.90
23405;DHT22;11875;49.356;2.718;2023-08-06T10:04:15;19.80;99.90
23405;DHT22;11875;49.356;2.718;2023-08-06T10:06:42;19.80;99.90
23405;DHT22;11875;49.356;2.718;2023-08-06T10:09:08;19.80;99.90
23405;DHT22;11875;49.356;2.718;2023-08-06T10:11:36;19.60;99.90
23405;DHT22;11875;49.356;2.718;2023-08-06T10:14:19;19.60;99.90
23405;DHT22;11875;49.356;2.718;2023-08-06T10:16:47;19.60;99.90
23405;DHT22;11875;49.356;2.718;2023-08-06T10:19:14;19.90;99.90
23405;DHT22;11875;49.356;2.718;2023-08-06T10:21:40;20.00;99.90
23405;DHT22;11875;49.356;2.718;2023-08-06T10:24:13;20.10;99.90
23405;DHT22;11875;49.356;2.718;2023-08-06T10:26:40;20.00;99.90
23405;DHT22;11875;49.356;2.718;2023-08-06T10:29:36;19.90;99.90
23405;DHT22;11875;49.356;2.718;2023-08-06T10:32:03;20.00;99.90
23405;DHT22;11875;49.356;2.718;2023-08-06T10:34:58;20.20;99.90
23405;DHT22;11875;49.356;2.718;2023-08-06T10:37:37;20.20;99.90
23405;DHT22;11875;49.356;2.718;2023-08-06T10:40:06;20.30;99.90
23405;DHT22;11875;49.356;2.718;2023-08-06T10:42:33;20.40;99.90
23405;DHT22;11875;49.356;2.718;2023-08-06T10:45:33;20.40;99.90
23405;DHT22;11875;49.356;2.718;2023-08-06T10:47:59;20.50;99.90
23405;DHT22;11875;49.356;2.718;2023-08-06T10:50:25;20.50;99.90
23405;DHT22;11875;49.356;2.718;2023-08-06T10:52:51;20.50;99.90
23405;DHT22;11875;49.356;2.718;2023-08-06T10:55:29;20.60;99.90
23405;DHT22;11875;49.356;2.718;2023-08-06T10:57:55;20.60;99.90
23405;DHT22;11875;49.356;2.718;2023-08-06T11:00:22;20.50;99.90
23405;DHT22;11875;49.356;2.718;2023-08-06T11:02:49;20.50;99.90
23405;DHT22;11875;49.356;2.718;2023-08-06T11:05:15;20.60;99.90
23405;DHT22;11875;49.356;2.718;2023-08-06T11:07:40;20.70;99.90
23405;DHT22;11875;49.356;2.718;2023-08-06T11:10:08;20.60;99.90
23405;DHT22;11875;49.356;2.718;2023-08-06T11:12:34;20.60;99.90
23405;DHT22;11875;49.356;2.718;2023-08-06T11:15:01;20.50;99.90
23405;DHT22;11875;49.356;2.718;2023-08-06T11:17:28;20.60;99.90
23405;DHT22;11875;49.356;2.718;2023-08-06T11:19:54;20.60;99.90
23405;DHT22;11875;49.356;2.718;2023-08-06T11:22:23;20.50;99.90
23405;DHT22;11875;49.356;2.718;2023-08-06T11:24:49;20.60;99.90
23405;DHT22;11875;49.356;2.718;2023-08-06T11:27:15;20.70;99.90
23405;DHT22;11875;49.356;2.718;2023-08-06T11:29:42;20.70;99.90
23405;DHT22;11875;49.356;2.718;2023-08-06T11:32:08;20.80;99.90
23405;DHT22;11875;49.356;2.718;2023-08-06T11:34:35;20.90;99.90
23405;DHT22;11875;49.356;2.718;2023-08-06T11:37:02;21.00;99.90
23405;DHT22;11875;49.356;2.718;2023-08-06T11:39:28;21.00;99.90
23405;DHT22;11875;49.356;2.718;2023-08-06T11:41:54;21.10;99.90
23405;DHT22;11875;49.356;2.718;2023-08-06T11:44:20;21.30;99.90
23405;DHT22;11875;49.356;2.718;2023-08-06T11:46:53;21.30;99.90
23405;DHT22;11875;49.356;2.718;2023-08-06T11:49:54;21.30;99.90
23405;DHT22;11875;49.356;2.718;2023-08-06T11:52:19;21.30;99.90
23405;DHT22;11875;49.356;2.718;2023-08-06T11:54:46;21.40;99.90
23405;DHT22;11875;49.356;2.718;2023-08-06T11:57:12;21.40;99.90
23405;DHT22;11875;49.356;2.718;2023-08-06T11:59:39;21.40;99.90
23405;DHT22;11875;49.356;2.718;2023-08-06T12:02:05;21.40;99.90
23405;DHT22;11875;49.356;2.718;2023-08-06T12:04:59;21.50;99.90
23405;DHT22;11875;49.356;2.718;2023-08-06T12:07:28;21.50;99.90
23405;DHT22;11875;49.356;2.718;2023-08-06T12:09:53;21.40;99.90
23405;DHT22;11875;49.356;2.718;2023-08-06T12:12:19;21.30;99.90
23405;DHT22;11875;49.356;2.718;2023-08-06T12:14:44;21.40;99.90
23405;DHT22;11875;49.356;2.718;2023-08-06T12:17:10;21.40;99.90
23405;DHT22;11875;49.356;2.718;2023-08-06T12:19:36;21.40;99.90
23405;DHT22;11875;49.356;2.718;2023-08-06T12:22:02;21.40;99.90
23405;DHT22;11875;49.356;2.718;2023-08-06T12:24:28;21.30;99.90
23405;DHT22;11875;49.356;2.718;2023-08-06T12:26:57;21.30;99.90
23405;DHT22;11875;49.356;2.718;2023-08-06T12:29:23;21.30;99.90
23405;DHT22;11875;49.356;2.718;2023-08-06T12:31:49;21.20;99.90
23405;DHT22;11875;49.356;2.718;2023-08-06T12:34:14;21.20;99.90
23405;DHT22;11875;49.356;2.718;2023-08-06T12:36:40;21.30;99.90
23405;DHT22;11875;49.356;2.718;2023-08-06T12:39:05;21.40;99.90
23405;DHT22;11875;49.356;2.718;2023-08-06T12:41:31;21.40;99.90
23405;DHT22;11875;49.356;2.718;2023-08-06T12:43:56;21.30;99.90
23405;DHT22;11875;49.356;2.718;2023-08-06T12:46:22;21.00;99.90
23405;DHT22;11875;49.356;2.718;2023-08-06T12:48:47;20.80;99.90
23405;DHT22;11875;49.356;2.718;2023-08-06T12:51:14;20.60;99.90
23405;DHT22;11875;49.356;2.718;2023-08-06T12:53:39;20.60;99.90
23405;DHT22;11875;49.356;2.718;2023-08-06T12:56:05;20.50;99.90
23405;DHT22;11875;49.356;2.718;2023-08-06T12:58:31;20.50;99.90
23405;DHT22;11875;49.356;2.718;2023-08-06T13:00:56;20.50;99.90
23405;DHT22;11875;49.356;2.718;2023-08-06T13:03:22;20.50;99.90
23405;DHT22;11875;49.356;2.718;2023-08-06T13:05:47;20.60;99.90
23405;DHT22;11875;49.356;2.718;2023-08-06T13:08:13;20.50;99.90
23405;DHT22;11875;49.356;2.718;2023-08-06T13:10:39;20.60;99.90
23405;DHT22;11875;49.356;2.718;2023-08-06T13:13:05;20.60;99.90
23405;DHT22;11875;49.356;2.718;2023-08-06T13:15:30;20.50;99.90
23405;DHT22;11875;49.356;2.718;2023-08-06T13:17:56;20.60;99.90
23405;DHT22;11875;49.356;2.718;2023-08-06T13:20:21;20.60;99.90
23405;DHT22;11875;49.356;2.718;2023-08-06T13:22:48;20.70;99.90
23405;DHT22;11875;49.356;2.718;2023-08-06T13:25:16;20.70;99.90
23405;DHT22;11875;49.356;2.718;2023-08-06T13:27:42;20.60;99.90
23405;DHT22;11875;49.356;2.718;2023-08-06T13:30:09;20.60;99.90
23405;DHT22;11875;49.356;2.718;2023-08-06T13:32:35;20.70;99.90
23405;DHT22;11875;49.356;2.718;2023-08-06T13:35:04;20.80;99.90
23405;DHT22;11875;49.356;2.718;2023-08-06T13:37:29;20.80;99.90
23405;DHT22;11875;49.356;2.718;2023-08-06T13:39:55;20.70;99.90
23405;DHT22;11875;49.356;2.718;2023-08-06T13:42:21;20.70;99.90
23405;DHT22;11875;49.356;2.718;2023-08-06T13:44:47;20.70;99.90
23405;DHT22;11875;49.356;2.718;2023-08-06T13:47:12;20.70;99.90
23405;DHT22;11875;49.356;2.718;2023-08-06T13:49:38;20.70;99.90
23405;DHT22;11875;49.356;2.718;2023-08-06T13:52:04;20.70;99.90
23405;DHT22;11875;49.356;2.718;2023-08-06T13:54:30;20.70;99.90
23405;DHT22;11875;49.356;2.718;2023-08-06T13:56:55;20.80;99.90
23405;DHT22;11875;49.356;2.718;2023-08-06T13:59:21;20.80;99.90
23405;DHT22;11875;49.356;2.718;2023-08-06T14:01:49;20.90;99.90
23405;DHT22;11875;49.356;2.718;2023-08-06T14:04:14;20.90;99.90
23405;DHT22;11875;49.356;2.718;2023-08-06T14:06:40;20.90;99.90
23405;DHT22;11875;49.356;2.718;2023-08-06T14:09:06;20.90;99.90
23405;DHT22;11875;49.356;2.718;2023-08-06T14:11:33;20.90;99.90
23405;DHT22;11875;49.356;2.718;2023-08-06T14:13:59;20.80;99.90
23405;DHT22;11875;49.356;2.718;2023-08-06T14:16:25;20.80;99.90
23405;DHT22;11875;49.356;2.718;2023-08-06T14:18:51;20.80;99.90
23405;DHT22;11875;49.356;2.718;2023-08-06T14:21:16;20.80;99.90
23405;DHT22;11875;49.356;2.718;2023-08-06T14:23:42;20.80;99.90
23405;DHT22;11875;49.356;2.718;2023-08-06T14:26:07;20.70;99.90
23405;DHT22;11875;49.356;2.718;2023-08-06T14:28:35;20.70;99.90
23405;DHT22;11875;49.356;2.718;2023-08-06T14:31:01;20.80;99.90
23405;DHT22;11875;49.356;2.718;2023-08-06T14:33:27;20.80;99.90
23405;DHT22;11875;49.356;2.718;2023-08-06T14:35:52;20.70;99.90
23405;DHT22;11875;49.356;2.718;2023-08-06T14:38:18;20.80;99.90
23405;DHT22;11875;49.356;2.718;2023-08-06T14:40:44;20.70;99.90
23405;DHT22;11875;49.356;2.718;2023-08-06T14:43:09;20.80;99.90
23405;DHT22;11875;49.356;2.718;2023-08-06T14:45:39;20.90;99.90
23405;DHT22;11875;49.356;2.718;2023-08-06T14:48:05;20.90;99.90
23405;DHT22;11875;49.356;2.718;2023-08-06T14:50:31;20.90;99.90
23405;DHT22;11875;49.356;2.718;2023-08-06T14:52:56;20.90;99.90
23405;DHT22;11875;49.356;2.718;2023-08-06T14:55:26;21.00;99.90
23405;DHT22;11875;49.356;2.718;2023-08-06T14:57:52;21.10;99.90
23405;DHT22;11875;49.356;2.718;2023-08-06T15:00:18;21.20;99.90
23405;DHT22;11875;49.356;2.718;2023-08-06T15:02:44;21.20;99.90
23405;DHT22;11875;49.356;2.718;2023-08-06T15:05:10;21.10;99.90
23405;DHT22;11875;49.356;2.718;2023-08-06T15:07:35;21.10;99.90
23405;DHT22;11875;49.356;2.718;2023-08-06T15:10:03;21.30;99.90
23405;DHT22;11875;49.356;2.718;2023-08-06T15:12:29;21.50;99.90
23405;DHT22;11875;49.356;2.718;2023-08-06T15:14:54;21.30;99.90
23405;DHT22;11875;49.356;2.718;2023-08-06T15:17:22;21.20;99.90
23405;DHT22;11875;49.356;2.718;2023-08-06T15:19:48;21.10;99.90
23405;DHT22;11875;49.356;2.718;2023-08-06T15:22:14;21.20;99.90
23405;DHT22;11875;49.356;2.718;2023-08-06T15:24:40;21.40;99.90
23405;DHT22;11875;49.356;2.718;2023-08-06T15:27:08;21.60;99.90
23405;DHT22;11875;49.356;2.718;2023-08-06T15:29:34;21.70;99.90
23405;DHT22;11875;49.356;2.718;2023-08-06T15:32:00;21.70;99.90
23405;DHT22;11875;49.356;2.718;2023-08-06T15:34:25;21.50;99.90
23405;DHT22;11875;49.356;2.718;2023-08-06T15:36:51;21.40;99.90
23405;DHT22;11875;49.356;2.718;2023-08-06T15:39:16;21.20;99.90